sensor_id;sensor_type;location;lat;lon;timestamp;temperature;humidity
5556;DHT22;2801;50.972;7.856;2024-03-17T00:01:02;2.60;99.90
5556;DHT22;2801;50.972;7.856;2024-03-17T00:03:30;2.50;99.90
5556;DHT22;2801;50.972;7.856;2024-03-17T00:05:58;2.40;99.90
5556;DHT22;2801;50.972;7.856;2024-03-17T00:08:25;2.30;99.90
5556;DHT22;2801;50.972;7.856;2024-03-17T00:10:52;2.40;99.90
5556;DHT22;2801;50.972;7.856;2024-03-17T00:13:20;2.30;99.90
5556;DHT22;2801;50.972;7.856;2024-03-17T00:15:50;2.20;99.90
5556;DHT22;2801;50.972;7.856;2024-03-17T00:18:17;2.10;99.90
5556;DHT22;2801;50.972;7.856;2024-03-17T00:20:43;2.10;99.90
5556;DHT22;2801;50.972;7.856;2024-03-17T00:23:10;2.20;99.90
5556;DHT22;2801;50.972;7.856;2024-03-17T00:25:38;2.10;99.90
5556;DHT22;2801;50.972;7.856;2024-03-17T00:28:05;2.10;99.90
5556;DHT22;2801;50.972;7.856;2024-03-17T00:30:31;2.20;99.90
5556;DHT22;2801;50.972;7.856;2024-03-17T00:32:58;2.10;99.90
5556;DHT22;2801;50.972;7.856;2024-03-17T00:35:25;1.90;99.90
5556;DHT22;2801;50.972;7.856;2024-03-17T00:37:51;1.90;99.90
5556;DHT22;2801;50.972;7.856;2024-03-17T00:40:19;1.80;99.90
5556;DHT22;2801;50.972;7.856;2024-03-17T00:42:46;1.70;99.90
5556;DHT22;2801;50.972;7.856;2024-03-17T00:45:13;1.50;99.90
5556;DHT22;2801;50.972;7.856;2024-03-17T00:47:39;1.50;99.90
5556;DHT22;2801;50.972;7.856;2024-03-17T00:50:06;1.50;99.90
5556;DHT22;2801;50.972;7.856;2024-03-17T00:52:34;1.40;99.90
5556;DHT22;2801;50.972;7.856;2024-03-17T00:55:00;1.50;99.90
5556;DHT22;2801;50.972;7.856;2024-03-17T00:57:26;1.40;99.90
5556;DHT22;2801;50.972;7.856;2024-03-17T00:59:52;1.40;99.90
5556;DHT22;2801;50.972;7.856;2024-03-17T01:02:18;1.20;99.90
5556;DHT22;2801;50.972;7.856;2024-03-17T01:04:45;1.30;99.90
5556;DHT22;2801;50.972;7.856;2024-03-17T01:07:11;1.10;99.90
5556;DHT22;2801;50.972;7.856;2024-03-17T01:09:38;1.10;99.90
5556;DHT22;2801;50.972;7.856;2024-03-17T01:12:04;1.20;99.90
5556;DHT22;2801;50.972;7.856;2024-03-17T01:14:31;1.20;99.90
5556;DHT22;2801;50.972;7.856;2024-03-17T01:16:58;1.20;99.90
5556;DHT22;2801;50.972;7.856;2024-03-17T01:19:25;1.00;99.90
5556;DHT22;2801;50.972;7.856;2024-03-17T01:21:52;1.10;99.90
5556;DHT22;2801;50.972;7.856;2024-03-17T01:24:18;1.10;99.90
5556;DHT22;2801;50.972;7.856;2024-03-17T01:26:44;1.10;99.90
5556;DHT22;2801;50.972;7.856;2024-03-17T01:29:11;1.00;99.90
5556;DHT22;2801;50.972;7.856;2024-03-17T01:31:37;1.00;99.90
5556;DHT22;2801;50.972;7.856;2024-03-17T01:34:03;1.00;99.90
5556;DHT22;2801;50.972;7.856;2024-03-17T01:36:29;0.90;99.90
5556;DHT22;2801;50.972;7.856;2024-03-17T01:38:55;0.90;99.90
5556;DHT22;2801;50.972;7.856;2024-03-17T01:41:21;0.90;99.90
5556;DHT22;2801;50.972;7.856;2024-03-17T01:43:47;0.90;99.90
5556;DHT22;2801;50.972;7.856;2024-03-17T01:46:15;0.80;99.90
5556;DHT22;2801;50.972;7.856;2024-03-17T01:48:43;1.00;99.90
5556;DHT22;2801;50.972;7.856;2024-03-17T01:51:11;0.80;99.90
5556;DHT22;2801;50.972;7.856;2024-03-17T01:53:39;0.80;99.90
5556;DHT22;2801;50.972;7.856;2024-03-17T01:56:07;0.70;99.90
5556;DHT22;2801;50.972;7.856;2024-03-17T01:58:36;0.70;99.90
5556;DHT22;2801;50.972;7.856;2024-03-17T02:01:02;0.70;99.90
5556;DHT22;2801;50.972;7.856;2024-03-17T02:03:30;0.60;99.90
5556;DHT22;2801;50.972;7.856;2024-03-17T02:06:00;0.50;99.90
5556;DHT22;2801;50.972;7.856;2024-03-17T02:08:26;0.50;99.90
5556;DHT22;2801;50.972;7.856;2024-03-17T02:10:56;0.40;99.90
5556;DHT22;2801;50.972;7.856;2024-03-17T02:13:22;0.40;99.90
5556;DHT22;2801;50.972;7.856;2024-03-17T02:15:48;0.30;99.90
5556;DHT22;2801;50.972;7.856;2024-03-17T02:18:15;0.30;99.90
5556;DHT22;2801;50.972;7.856;2024-03-17T02:20:41;0.30;99.90
5556;DHT22;2801;50.972;7.856;2024-03-17T02:23:26;0.20;99.90
5556;DHT22;2801;50.972;7.856;2024-03-17T02:25:53;0.30;99.90
5556;DHT22;2801;50.972;7.856;2024-03-17T02:28:19;0.20;99.90
5556;DHT22;2801;50.972;7.856;2024-03-17T02:30:45;0.10;99.90
5556;DHT22;2801;50.972;7.856;2024-03-17T02:33:11;0.10;99.90
5556;DHT22;2801;50.972;7.856;2024-03-17T02:35:37;0.20;99.90
5556;DHT22;2801;50.972;7.856;2024-03-17T02:38:03;0.10;99.90
5556;DHT22;2801;50.972;7.856;2024-03-17T02:40:29;0.00;99.90
5556;DHT22;2801;50.972;7.856;2024-03-17T02:42:56;0.00;99.90
5556;DHT22;2801;50.972;7.856;2024-03-17T02:45:22;0.00;99.90
5556;DHT22;2801;50.972;7.856;2024-03-17T02:47:48;0.00;99.90
5556;DHT22;2801;50.972;7.856;2024-03-17T02:50:15;-0.10;99.90
5556;DHT22;2801;50.972;7.856;2024-03-17T02:52:41;0.00;99.90
5556;DHT22;2801;50.972;7.856;2024-03-17T02:55:08;0.00;99.90
5556;DHT22;2801;50.972;7.856;2024-03-17T02:57:34;0.00;99.90
5556;DHT22;2801;50.972;7.856;2024-03-17T03:00:00;-0.10;99.90
5556;DHT22;2801;50.972;7.856;2024-03-17T03:02:26;0.00;99.90
5556;DHT22;2801;50.972;7.856;2024-03-17T03:04:52;0.00;99.90
5556;DHT22;2801;50.972;7.856;2024-03-17T03:07:18;-0.10;99.90
5556;DHT22;2801;50.972;7.856;2024-03-17T03:09:43;0.00;99.90
5556;DHT22;2801;50.972;7.856;2024-03-17T03:12:09;0.00;99.90
5556;DHT22;2801;50.972;7.856;2024-03-17T03:14:35;0.00;99.90
5556;DHT22;2801;50.972;7.856;2024-03-17T03:17:02;-0.10;99.90
5556;DHT22;2801;50.972;7.856;2024-03-17T03:19:29;-0.10;99.90
5556;DHT22;2801;50.972;7.856;2024-03-17T03:21:55;0.00;99.90
5556;DHT22;2801;50.972;7.856;2024-03-17T03:24:21;-0.10;99.90
5556;DHT22;2801;50.972;7.856;2024-03-17T03:26:48;-0.10;99.90
5556;DHT22;2801;50.972;7.856;2024-03-17T03:29:14;-0.10;99.90
5556;DHT22;2801;50.972;7.856;2024-03-17T03:31:40;-0.30;99.90
5556;DHT22;2801;50.972;7.856;2024-03-17T03:34:07;-0.30;99.90
5556;DHT22;2801;50.972;7.856;2024-03-17T03:36:35;-0.20;99.90
5556;DHT22;2801;50.972;7.856;2024-03-17T03:39:02;-0.20;99.90
5556;DHT22;2801;50.972;7.856;2024-03-17T03:41:31;-0.40;99.90
5556;DHT22;2801;50.972;7.856;2024-03-17T03:43:58;-0.40;99.90
5556;DHT22;2801;50.972;7.856;2024-03-17T03:46:25;-0.40;99.90
5556;DHT22;2801;50.972;7.856;2024-03-17T03:48:51;-0.40;99.90
5556;DHT22;2801;50.972;7.856;2024-03-17T03:51:18;-0.40;99.90
5556;DHT22;2801;50.972;7.856;2024-03-17T03:53:44;-0.40;99.90
5556;DHT22;2801;50.972;7.856;2024-03-17T03:56:10;-0.60;99.90
5556;DHT22;2801;50.972;7.856;2024-03-17T03:58:37;-0.30;99.90
5556;DHT22;2801;50.972;7.856;2024-03-17T04:01:09;-0.50;99.90
5556;DHT22;2801;50.972;7.856;2024-03-17T04:03:41;-0.50;99.90
5556;DHT22;2801;50.972;7.856;2024-03-17T04:06:09;-0.40;99.90
5556;DHT22;2801;50.972;7.856;2024-03-17T04:08:39;-0.40;99.90
5556;DHT22;2801;50.972;7.856;2024-03-17T04:11:09;-0.40;99.90
5556;DHT22;2801;50.972;7.856;2024-03-17T04:13:35;-0.40;99.90
5556;DHT22;2801;50.972;7.856;2024-03-17T04:16:04;-0.50;99.90
5556;DHT22;2801;50.972;7.856;2024-03-17T04:18:32;-0.50;99.90
5556;DHT22;2801;50.972;7.856;2024-03-17T04:21:04;-0.50;99.90
5556;DHT22;2801;50.972;7.856;2024-03-17T04:23:33;-0.60;99.90
5556;DHT22;2801;50.972;7.856;2024-03-17T04:26:00;-0.60;99.90
5556;DHT22;2801;50.972;7.856;2024-03-17T04:28:27;-0.50;99.90
5556;DHT22;2801;50.972;7.856;2024-03-17T04:31:02;-0.60;99.90
5556;DHT22;2801;50.972;7.856;2024-03-17T04:33:30;-0.50;99.90
5556;DHT22;2801;50.972;7.856;2024-03-17T04:35:57;-0.50;99.90
5556;DHT22;2801;50.972;7.856;2024-03-17T04:38:23;-0.60;99.90
5556;DHT22;2801;50.972;7.856;2024-03-17T04:40:50;-0.50;99.90
5556;DHT22;2801;50.972;7.856;2024-03-17T04:43:17;-0.50;99.90
5556;DHT22;2801;50.972;7.856;2024-03-17T04:45:43;-0.70;99.90
5556;DHT22;2801;50.972;7.856;2024-03-17T04:48:10;-0.50;99.90
5556;DHT22;2801;50.972;7.856;2024-03-17T04:50:36;-0.60;99.90
5556;DHT22;2801;50.972;7.856;2024-03-17T04:53:02;-0.70;99.90
5556;DHT22;2801;50.972;7.856;2024-03-17T04:55:29;-0.70;99.90
5556;DHT22;2801;50.972;7.856;2024-03-17T04:57:55;-0.70;99.90
5556;DHT22;2801;50.972;7.856;2024-03-17T05:00:21;-0.70;99.90
5556;DHT22;2801;50.972;7.856;2024-03-17T05:02:47;-0.70;99.90
5556;DHT22;2801;50.972;7.856;2024-03-17T05:05:13;-0.70;99.90
5556;DHT22;2801;50.972;7.856;2024-03-17T05:07:39;-0.80;99.90
5556;DHT22;2801;50.972;7.856;2024-03-17T05:10:06;-0.70;99.90
5556;DHT22;2801;50.972;7.856;2024-03-17T05:12:32;-0.70;99.90
5556;DHT22;2801;50.972;7.856;2024-03-17T05:14:58;-0.70;99.90
5556;DHT22;2801;50.972;7.856;2024-03-17T05:17:24;-0.70;99.90
5556;DHT22;2801;50.972;7.856;2024-03-17T05:19:50;-0.60;99.90
5556;DHT22;2801;50.972;7.856;2024-03-17T05:22:16;-0.70;99.90
5556;DHT22;2801;50.972;7.856;2024-03-17T05:24:42;-0.60;99.90
5556;DHT22;2801;50.972;7.856;2024-03-17T05:27:08;-0.70;99.90
5556;DHT22;2801;50.972;7.856;2024-03-17T05:29:34;-0.60;99.90
5556;DHT22;2801;50.972;7.856;2024-03-17T05:32:04;-0.60;99.90
5556;DHT22;2801;50.972;7.856;2024-03-17T05:34:30;-0.50;99.90
5556;DHT22;2801;50.972;7.856;2024-03-17T05:36:56;-0.50;99.90
5556;DHT22;2801;50.972;7.856;2024-03-17T05:39:22;-0.60;99.90
5556;DHT22;2801;50.972;7.856;2024-03-17T05:41:48;-0.50;99.90
5556;DHT22;2801;50.972;7.856;2024-03-17T05:44:15;-0.50;99.90
5556;DHT22;2801;50.972;7.856;2024-03-17T05:46:41;-0.50;99.90
5556;DHT22;2801;50.972;7.856;2024-03-17T05:49:08;-0.50;99.90
5556;DHT22;2801;50.972;7.856;2024-03-17T05:51:33;-0.40;99.90
5556;DHT22;2801;50.972;7.856;2024-03-17T05:53:59;-0.40;99.90
5556;DHT22;2801;50.972;7.856;2024-03-17T05:56:25;-0.40;99.90
5556;DHT22;2801;50.972;7.856;2024-03-17T05:58:51;-0.50;99.90
5556;DHT22;2801;50.972;7.856;2024-03-17T06:01:17;-0.50;99.90
5556;DHT22;2801;50.972;7.856;2024-03-17T06:03:45;-0.40;99.90
5556;DHT22;2801;50.972;7.856;2024-03-17T06:06:11;-0.40;99.90
5556;DHT22;2801;50.972;7.856;2024-03-17T06:08:38;-0.30;99.90
5556;DHT22;2801;50.972;7.856;2024-03-17T06:11:07;-0.20;99.90
5556;DHT22;2801;50.972;7.856;2024-03-17T06:13:33;-0.20;99.90
5556;DHT22;2801;50.972;7.856;2024-03-17T06:16:03;-0.10;99.90
5556;DHT22;2801;50.972;7.856;2024-03-17T06:18:30;-0.10;99.90
5556;DHT22;2801;50.972;7.856;2024-03-17T06:20:57;0.00;99.90
5556;DHT22;2801;50.972;7.856;2024-03-17T06:23:24;-0.10;99.90
5556;DHT22;2801;50.972;7.856;2024-03-17T06:25:52;0.20;99.90
5556;DHT22;2801;50.972;7.856;2024-03-17T06:28:20;0.40;99.90
5556;DHT22;2801;50.972;7.856;2024-03-17T06:30:54;0.90;99.90
5556;DHT22;2801;50.972;7.856;2024-03-17T06:33:21;1.40;99.90
5556;DHT22;2801;50.972;7.856;2024-03-17T06:35:47;2.10;99.90
5556;DHT22;2801;50.972;7.856;2024-03-17T06:38:14;2.80;99.90
5556;DHT22;2801;50.972;7.856;2024-03-17T06:40:41;3.50;99.90
5556;DHT22;2801;50.972;7.856;2024-03-17T06:43:07;4.00;99.90
5556;DHT22;2801;50.972;7.856;2024-03-17T06:45:34;4.50;99.90
5556;DHT22;2801;50.972;7.856;2024-03-17T06:48:00;5.00;99.90
5556;DHT22;2801;50.972;7.856;2024-03-17T06:50:26;5.30;99.90
5556;DHT22;2801;50.972;7.856;2024-03-17T06:52:52;6.00;99.90
5556;DHT22;2801;50.972;7.856;2024-03-17T06:55:19;6.40;99.90
5556;DHT22;2801;50.972;7.856;2024-03-17T06:57:47;6.90;99.90
5556;DHT22;2801;50.972;7.856;2024-03-17T07:00:14;7.30;99.90
5556;DHT22;2801;50.972;7.856;2024-03-17T07:02:42;7.80;99.90
5556;DHT22;2801;50.972;7.856;2024-03-17T07:05:15;8.30;99.90
5556;DHT22;2801;50.972;7.856;2024-03-17T07:07:45;8.90;99.90
5556;DHT22;2801;50.972;7.856;2024-03-17T07:10:12;9.10;99.90
5556;DHT22;2801;50.972;7.856;2024-03-17T07:12:39;9.30;99.90
5556;DHT22;2801;50.972;7.856;2024-03-17T07:15:06;9.70;99.90
5556;DHT22;2801;50.972;7.856;2024-03-17T07:17:33;10.10;99.90
5556;DHT22;2801;50.972;7.856;2024-03-17T07:19:59;10.30;99.90
5556;DHT22;2801;50.972;7.856;2024-03-17T07:22:25;10.50;99.90
5556;DHT22;2801;50.972;7.856;2024-03-17T07:24:52;10.30;99.90
5556;DHT22;2801;50.972;7.856;2024-03-17T07:27:26;10.10;99.90
5556;DHT22;2801;50.972;7.856;2024-03-17T07:29:53;10.00;99.90
5556;DHT22;2801;50.972;7.856;2024-03-17T07:32:22;10.00;99.90
5556;DHT22;2801;50.972;7.856;2024-03-17T07:34:51;10.30;99.90
5556;DHT22;2801;50.972;7.856;2024-03-17T07:37:17;10.50;99.90
5556;DHT22;2801;50.972;7.856;2024-03-17T07:39:43;11.00;99.90
5556;DHT22;2801;50.972;7.856;2024-03-17T07:42:09;11.50;99.90
5556;DHT22;2801;50.972;7.856;2024-03-17T07:44:35;11.40;99.90
5556;DHT22;2801;50.972;7.856;2024-03-17T07:47:02;11.70;99.90
5556;DHT22;2801;50.972;7.856;2024-03-17T07:49:30;12.20;99.90
5556;DHT22;2801;50.972;7.856;2024-03-17T07:51:57;12.50;99.90
5556;DHT22;2801;50.972;7.856;2024-03-17T07:54:24;12.90;99.90
5556;DHT22;2801;50.972;7.856;2024-03-17T07:56:50;12.70;99.90
5556;DHT22;2801;50.972;7.856;2024-03-17T07:59:17;12.60;99.90
5556;DHT22;2801;50.972;7.856;2024-03-17T08:01:44;12.50;99.90
5556;DHT22;2801;50.972;7.856;2024-03-17T08:04:11;11.90;99.90
5556;DHT22;2801;50.972;7.856;2024-03-17T08:06:40;11.30;99.90
5556;DHT22;2801;50.972;7.856;2024-03-17T08:09:07;10.90;99.90
5556;DHT22;2801;50.972;7.856;2024-03-17T08:11:35;10.40;99.90
5556;DHT22;2801;50.972;7.856;2024-03-17T08:14:01;10.00;99.90
5556;DHT22;2801;50.972;7.856;2024-03-17T08:16:28;9.80;99.90
5556;DHT22;2801;50.972;7.856;2024-03-17T08:18:55;9.90;99.90
5556;DHT22;2801;50.972;7.856;2024-03-17T08:21:22;10.00;99.90
5556;DHT22;2801;50.972;7.856;2024-03-17T08:23:48;9.80;99.90
5556;DHT22;2801;50.972;7.856;2024-03-17T08:26:15;9.80;99.90
5556;DHT22;2801;50.972;7.856;2024-03-17T08:28:41;10.20;99.90
5556;DHT22;2801;50.972;7.856;2024-03-17T08:31:07;10.30;99.90
5556;DHT22;2801;50.972;7.856;2024-03-17T08:33:33;10.90;99.90
5556;DHT22;2801;50.972;7.856;2024-03-17T08:38:32;11.30;99.90
5556;DHT22;2801;50.972;7.856;2024-03-17T08:41:06;11.60;99.90
5556;DHT22;2801;50.972;7.856;2024-03-17T08:43:34;12.00;99.90
5556;DHT22;2801;50.972;7.856;2024-03-17T08:46:06;12.20;99.90
5556;DHT22;2801;50.972;7.856;2024-03-17T08:48:35;12.20;99.90
5556;DHT22;2801;50.972;7.856;2024-03-17T08:51:04;12.20;99.90
5556;DHT22;2801;50.972;7.856;2024-03-17T08:53:32;12.20;99.90
5556;DHT22;2801;50.972;7.856;2024-03-17T08:55:59;12.10;99.90
5556;DHT22;2801;50.972;7.856;2024-03-17T08:58:26;12.00;99.90
5556;DHT22;2801;50.972;7.856;2024-03-17T09:00:52;12.20;99.90
5556;DHT22;2801;50.972;7.856;2024-03-17T09:03:19;12.50;99.90
5556;DHT22;2801;50.972;7.856;2024-03-17T09:05:47;12.60;99.90
5556;DHT22;2801;50.972;7.856;2024-03-17T09:08:22;12.60;99.90
5556;DHT22;2801;50.972;7.856;2024-03-17T09:10:51;12.30;99.90
5556;DHT22;2801;50.972;7.856;2024-03-17T09:13:25;12.00;99.90
5556;DHT22;2801;50.972;7.856;2024-03-17T09:16:00;11.70;99.90
5556;DHT22;2801;50.972;7.856;2024-03-17T09:18:28;12.00;99.90
5556;DHT22;2801;50.972;7.856;2024-03-17T09:21:02;12.50;99.90
5556;DHT22;2801;50.972;7.856;2024-03-17T09:23:30;13.10;99.90
5556;DHT22;2801;50.972;7.856;2024-03-17T09:26:01;13.90;99.90
5556;DHT22;2801;50.972;7.856;2024-03-17T09:28:29;14.50;99.90
5556;DHT22;2801;50.972;7.856;2024-03-17T09:30:57;14.70;99.90
5556;DHT22;2801;50.972;7.856;2024-03-17T09:33:25;15.00;99.90
5556;DHT22;2801;50.972;7.856;2024-03-17T09:35:57;15.60;99.90
5556;DHT22;2801;50.972;7.856;2024-03-17T09:38:28;16.30;99.90
5556;DHT22;2801;50.972;7.856;2024-03-17T09:40:54;16.70;99.90
5556;DHT22;2801;50.972;7.856;2024-03-17T09:43:24;16.60;99.90
5556;DHT22;2801;50.972;7.856;2024-03-17T09:45:51;16.60;99.90
5556;DHT22;2801;50.972;7.856;2024-03-17T09:48:24;16.70;99.90
5556;DHT22;2801;50.972;7.856;2024-03-17T09:50:52;16.50;99.90
5556;DHT22;2801;50.972;7.856;2024-03-17T09:53:25;15.80;99.90
5556;DHT22;2801;50.972;7.856;2024-03-17T09:56:03;14.90;99.90
5556;DHT22;2801;50.972;7.856;2024-03-17T09:58:34;14.40;99.90
5556;DHT22;2801;50.972;7.856;2024-03-17T10:01:00;14.20;99.90
5556;DHT22;2801;50.972;7.856;2024-03-17T10:03:48;14.30;99.90
5556;DHT22;2801;50.972;7.856;2024-03-17T10:06:25;14.50;99.90
5556;DHT22;2801;50.972;7.856;2024-03-17T10:11:24;14.10;99.90
5556;DHT22;2801;50.972;7.856;2024-03-17T10:14:02;14.10;99.90
5556;DHT22;2801;50.972;7.856;2024-03-17T10:16:38;13.60;99.90
5556;DHT22;2801;50.972;7.856;2024-03-17T10:19:15;13.40;99.90
5556;DHT22;2801;50.972;7.856;2024-03-17T10:21:46;13.40;99.90
5556;DHT22;2801;50.972;7.856;2024-03-17T10:24:22;13.90;99.90
5556;DHT22;2801;50.972;7.856;2024-03-17T10:26:57;14.20;99.90
5556;DHT22;2801;50.972;7.856;2024-03-17T10:29:34;14.50;99.90
5556;DHT22;2801;50.972;7.856;2024-03-17T10:32:15;14.40;99.90
5556;DHT22;2801;50.972;7.856;2024-03-17T10:34:44;14.10;99.90
5556;DHT22;2801;50.972;7.856;2024-03-17T10:37:14;13.80;99.90
5556;DHT22;2801;50.972;7.856;2024-03-17T10:39:42;13.70;99.90
5556;DHT22;2801;50.972;7.856;2024-03-17T10:42:11;14.00;99.90
5556;DHT22;2801;50.972;7.856;2024-03-17T10:44:41;14.10;99.90
5556;DHT22;2801;50.972;7.856;2024-03-17T10:47:24;14.00;99.90
5556;DHT22;2801;50.972;7.856;2024-03-17T10:49:52;14.50;99.90
5556;DHT22;2801;50.972;7.856;2024-03-17T10:52:20;15.10;99.90
5556;DHT22;2801;50.972;7.856;2024-03-17T10:54:50;15.80;99.90
5556;DHT22;2801;50.972;7.856;2024-03-17T11:00:08;16.30;99.90
5556;DHT22;2801;50.972;7.856;2024-03-17T11:02:35;16.20;99.90
5556;DHT22;2801;50.972;7.856;2024-03-17T11:07:57;15.60;99.90
5556;DHT22;2801;50.972;7.856;2024-03-17T11:10:29;15.40;99.90
5556;DHT22;2801;50.972;7.856;2024-03-17T11:13:00;15.20;99.90
5556;DHT22;2801;50.972;7.856;2024-03-17T11:20:38;14.40;99.90
5556;DHT22;2801;50.972;7.856;2024-03-17T11:23:06;14.20;99.90
5556;DHT22;2801;50.972;7.856;2024-03-17T11:28:08;13.80;99.90
5556;DHT22;2801;50.972;7.856;2024-03-17T11:39:04;13.20;99.90
5556;DHT22;2801;50.972;7.856;2024-03-17T11:41:38;13.20;99.90
5556;DHT22;2801;50.972;7.856;2024-03-17T11:49:32;13.30;99.90
5556;DHT22;2801;50.972;7.856;2024-03-17T11:52:11;13.40;99.90
5556;DHT22;2801;50.972;7.856;2024-03-17T11:54:40;13.40;99.90
5556;DHT22;2801;50.972;7.856;2024-03-17T11:57:09;13.40;99.90
5556;DHT22;2801;50.972;7.856;2024-03-17T11:59:37;13.50;99.90
5556;DHT22;2801;50.972;7.856;2024-03-17T12:02:26;13.70;99.90
5556;DHT22;2801;50.972;7.856;2024-03-17T12:04:58;13.70;99.90
5556;DHT22;2801;50.972;7.856;2024-03-17T12:07:26;13.50;99.90
5556;DHT22;2801;50.972;7.856;2024-03-17T12:09:54;13.50;99.90
5556;DHT22;2801;50.972;7.856;2024-03-17T12:14:51;13.70;99.90
5556;DHT22;2801;50.972;7.856;2024-03-17T12:17:22;13.70;99.90
5556;DHT22;2801;50.972;7.856;2024-03-17T12:19:49;13.80;99.90
5556;DHT22;2801;50.972;7.856;2024-03-17T12:22:21;13.80;99.90
5556;DHT22;2801;50.972;7.856;2024-03-17T12:24:49;13.80;99.90
5556;DHT22;2801;50.972;7.856;2024-03-17T12:27:18;13.80;99.90
5556;DHT22;2801;50.972;7.856;2024-03-17T12:29:46;14.00;99.90
5556;DHT22;2801;50.972;7.856;2024-03-17T12:32:19;14.30;99.90
5556;DHT22;2801;50.972;7.856;2024-03-17T12:37:27;14.60;99.90
5556;DHT22;2801;50.972;7.856;2024-03-17T12:40:02;14.60;99.90
5556;DHT22;2801;50.972;7.856;2024-03-17T12:42:29;14.60;99.90
5556;DHT22;2801;50.972;7.856;2024-03-17T12:44:59;14.60;99.90
5556;DHT22;2801;50.972;7.856;2024-03-17T12:47:27;14.60;99.90
5556;DHT22;2801;50.972;7.856;2024-03-17T12:49:56;14.60;99.90
5556;DHT22;2801;50.972;7.856;2024-03-17T12:52:25;14.70;99.90
5556;DHT22;2801;50.972;7.856;2024-03-17T12:58:14;14.50;99.90
5556;DHT22;2801;50.972;7.856;2024-03-17T13:01:02;14.40;99.90
5556;DHT22;2801;50.972;7.856;2024-03-17T13:03:36;14.10;99.90
5556;DHT22;2801;50.972;7.856;2024-03-17T13:06:05;14.10;99.90
5556;DHT22;2801;50.972;7.856;2024-03-17T13:08:35;14.00;99.90
5556;DHT22;2801;50.972;7.856;2024-03-17T13:11:02;14.20;99.90
5556;DHT22;2801;50.972;7.856;2024-03-17T13:13:31;14.30;99.90
5556;DHT22;2801;50.972;7.856;2024-03-17T13:15:57;14.50;99.90
5556;DHT22;2801;50.972;7.856;2024-03-17T13:18:24;14.60;99.90
5556;DHT22;2801;50.972;7.856;2024-03-17T13:20:50;14.60;99.90
5556;DHT22;2801;50.972;7.856;2024-03-17T13:23:18;14.60;99.90
5556;DHT22;2801;50.972;7.856;2024-03-17T13:25:45;14.60;99.90
5556;DHT22;2801;50.972;7.856;2024-03-17T13:28:11;14.30;99.90
5556;DHT22;2801;50.972;7.856;2024-03-17T13:30:37;14.20;99.90
5556;DHT22;2801;50.972;7.856;2024-03-17T13:33:04;14.00;99.90
5556;DHT22;2801;50.972;7.856;2024-03-17T13:35:35;13.70;99.90
5556;DHT22;2801;50.972;7.856;2024-03-17T13:38:09;13.60;99.90
5556;DHT22;2801;50.972;7.856;2024-03-17T13:40:37;13.70;99.90
5556;DHT22;2801;50.972;7.856;2024-03-17T13:43:06;13.80;99.90
5556;DHT22;2801;50.972;7.856;2024-03-17T13:45:39;13.90;99.90
5556;DHT22;2801;50.972;7.856;2024-03-17T13:48:07;13.90;99.90
5556;DHT22;2801;50.972;7.856;2024-03-17T13:50:37;14.00;99.90
5556;DHT22;2801;50.972;7.856;2024-03-17T13:53:10;13.90;99.90
5556;DHT22;2801;50.972;7.856;2024-03-17T13:55:36;14.00;99.90
5556;DHT22;2801;50.972;7.856;2024-03-17T13:58:03;14.00;99.90
5556;DHT22;2801;50.972;7.856;2024-03-17T14:00:31;13.90;99.90
5556;DHT22;2801;50.972;7.856;2024-03-17T14:03:00;14.00;99.90
5556;DHT22;2801;50.972;7.856;2024-03-17T14:05:26;14.10;99.90
5556;DHT22;2801;50.972;7.856;2024-03-17T14:07:53;14.00;99.90
5556;DHT22;2801;50.972;7.856;2024-03-17T14:10:22;13.80;99.90
5556;DHT22;2801;50.972;7.856;2024-03-17T14:12:49;13.80;99.90
5556;DHT22;2801;50.972;7.856;2024-03-17T14:15:16;13.80;99.90
5556;DHT22;2801;50.972;7.856;2024-03-17T14:17:44;13.80;99.90
5556;DHT22;2801;50.972;7.856;2024-03-17T14:20:12;13.80;99.90
5556;DHT22;2801;50.972;7.856;2024-03-17T14:22:40;13.90;99.90
5556;DHT22;2801;50.972;7.856;2024-03-17T14:25:17;13.90;99.90
5556;DHT22;2801;50.972;7.856;2024-03-17T14:27:44;14.00;99.90
5556;DHT22;2801;50.972;7.856;2024-03-17T14:30:15;14.00;99.90
5556;DHT22;2801;50.972;7.856;2024-03-17T14:32:42;14.00;99.90
5556;DHT22;2801;50.972;7.856;2024-03-17T14:35:16;13.90;99.90
5556;DHT22;2801;50.972;7.856;2024-03-17T14:37:44;13.80;99.90
5556;DHT22;2801;50.972;7.856;2024-03-17T14:40:14;13.70;99.90
5556;DHT22;2801;50.972;7.856;2024-03-17T14:42:52;13.60;99.90
5556;DHT22;2801;50.972;7.856;2024-03-17T14:45:18;13.60;99.90
5556;DHT22;2801;50.972;7.856;2024-03-17T14:47:45;13.50;99.90
5556;DHT22;2801;50.972;7.856;2024-03-17T14:50:12;13.60;99.90
5556;DHT22;2801;50.972;7.856;2024-03-17T14:52:39;13.60;99.90
5556;DHT22;2801;50.972;7.856;2024-03-17T14:55:09;13.50;99.90
5556;DHT22;2801;50.972;7.856;2024-03-17T14:57:39;13.50;99.90
5556;DHT22;2801;50.972;7.856;2024-03-17T15:00:11;13.30;99.90
5556;DHT22;2801;50.972;7.856;2024-03-17T15:02:47;13.20;99.90
5556;DHT22;2801;50.972;7.856;2024-03-17T15:05:16;13.10;99.90
5556;DHT22;2801;50.972;7.856;2024-03-17T15:07:45;13.00;99.90
5556;DHT22;2801;50.972;7.856;2024-03-17T15:10:11;13.00;99.90
5556;DHT22;2801;50.972;7.856;2024-03-17T15:12:40;13.00;99.90
5556;DHT22;2801;50.972;7.856;2024-03-17T15:15:10;12.90;99.90
5556;DHT22;2801;50.972;7.856;2024-03-17T15:17:36;12.90;99.90
5556;DHT22;2801;50.972;7.856;2024-03-17T15:20:02;12.90;99.90
5556;DHT22;2801;50.972;7.856;2024-03-17T15:22:50;12.90;99.90
5556;DHT22;2801;50.972;7.856;2024-03-17T15:25:17;12.90;99.90
5556;DHT22;2801;50.972;7.856;2024-03-17T15:27:46;12.80;99.90
5556;DHT22;2801;50.972;7.856;2024-03-17T15:30:16;12.70;99.90
5556;DHT22;2801;50.972;7.856;2024-03-17T15:32:48;12.60;99.90
5556;DHT22;2801;50.972;7.856;2024-03-17T15:35:15;12.60;99.90
5556;DHT22;2801;50.972;7.856;2024-03-17T15:37:42;12.60;99.90
5556;DHT22;2801;50.972;7.856;2024-03-17T15:40:09;12.60;99.90
5556;DHT22;2801;50.972;7.856;2024-03-17T15:42:48;12.50;99.90
5556;DHT22;2801;50.972;7.856;2024-03-17T15:45:16;12.50;99.90
5556;DHT22;2801;50.972;7.856;2024-03-17T15:47:46;12.40;99.90
5556;DHT22;2801;50.972;7.856;2024-03-17T15:50:12;12.40;99.90
5556;DHT22;2801;50.972;7.856;2024-03-17T15:52:41;12.30;99.90
5556;DHT22;2801;50.972;7.856;2024-03-17T15:55:10;12.40;99.90
5556;DHT22;2801;50.972;7.856;2024-03-17T15:57:36;12.30;99.90
5556;DHT22;2801;50.972;7.856;2024-03-17T16:00:02;12.30;99.90
5556;DHT22;2801;50.972;7.856;2024-03-17T16:02:35;12.30;99.90
5556;DHT22;2801;50.972;7.856;2024-03-17T16:05:03;12.20;99.90
5556;DHT22;2801;50.972;7.856;2024-03-17T16:07:36;12.20;99.90
5556;DHT22;2801;50.972;7.856;2024-03-17T16:10:04;12.10;99.90
5556;DHT22;2801;50.972;7.856;2024-03-17T16:12:32;12.10;99.90
5556;DHT22;2801;50.972;7.856;2024-03-17T16:14:59;12.20;99.90
5556;DHT22;2801;50.972;7.856;2024-03-17T16:17:29;12.10;99.90
5556;DHT22;2801;50.972;7.856;2024-03-17T16:19:57;12.10;99.90
5556;DHT22;2801;50.972;7.856;2024-03-17T16:22:26;12.10;99.90
5556;DHT22;2801;50.972;7.856;2024-03-17T16:24:52;12.20;99.90
5556;DHT22;2801;50.972;7.856;2024-03-17T16:27:18;12.20;99.90
5556;DHT22;2801;50.972;7.856;2024-03-17T16:29:44;12.20;99.90
5556;DHT22;2801;50.972;7.856;2024-03-17T16:32:10;12.20;99.90
5556;DHT22;2801;50.972;7.856;2024-03-17T16:34:37;12.40;99.90
5556;DHT22;2801;50.972;7.856;2024-03-17T16:37:03;12.20;99.90
5556;DHT22;2801;50.972;7.856;2024-03-17T16:39:31;12.10;99.90
5556;DHT22;2801;50.972;7.856;2024-03-17T16:41:56;12.10;99.90
5556;DHT22;2801;50.972;7.856;2024-03-17T16:47:26;11.90;99.90
5556;DHT22;2801;50.972;7.856;2024-03-17T16:49:55;11.80;99.90
5556;DHT22;2801;50.972;7.856;2024-03-17T16:52:24;11.80;99.90
5556;DHT22;2801;50.972;7.856;2024-03-17T16:54:53;11.60;99.90
5556;DHT22;2801;50.972;7.856;2024-03-17T16:57:20;11.50;99.90